Time;durP1;ratioP1;P1;durP2;ratioP2;P2;SDS_P1;SDS_P2;PMS_P1;PMS_P2;Temp;Humidity;BMP_temperature;BMP_pressure;BME280_temperature;BME280_humidity;BME280_pressure;Samples;Min_cycle;Max_cycle;Signal;HPM_P1;HPM_P2
2023/05/31 00:00:30;;;;;;;4.07;1.67;;;;;;;;;;12889850;23;20352;-81
2023/05/31 00:05:35;;;;;;;2.75;1.10;;;;;;;;;;12889347;22;20020;-81
2023/05/31 00:10:38;;;;;;;4.17;1.40;;;;;;;;;;12936745;23;20020;-81
2023/05/31 00:15:42;;;;;;;2.40;1.13;;;;;;;;;;12889931;23;20086;-81
2023/05/31 00:20:47;;;;;;;2.45;1.70;;;;;;;;;;12890079;23;20020;-81
2023/05/31 00:25:51;;;;;;;2.40;1.10;;;;;;;;;;12889406;23;20051;-81
2023/05/31 00:30:54;;;;;;;3.25;1.30;;;;;;;;;;12889645;23;20066;-80
2023/05/31 00:35:59;;;;;;;6.07;1.67;;;;;;;;;;12914453;22;20027;-81
2023/05/31 00:41:03;;;;;;;1.50;0.98;;;;;;;;;;12914966;23;20135;-80
2023/05/31 00:46:12;;;;;;;1.92;1.13;;;;;;;;;;12888633;23;20115;-81
2023/05/31 00:51:17;;;;;;;2.58;1.30;;;;;;;;;;12889496;23;20016;-81
2023/05/31 00:56:22;;;;;;;3.50;1.50;;;;;;;;;;12914338;22;20484;-81
2023/05/31 01:01:27;;;;;;;2.47;1.05;;;;;;;;;;12933244;23;20446;-81
2023/05/31 01:06:34;;;;;;;1.98;1.20;;;;;;;;;;12886287;23;20043;-81
2023/05/31 01:11:54;;;;;;;3.35;1.20;;;;;;;;;;12914511;23;20338;-82
2023/05/31 01:17:07;;;;;;;4.55;1.40;;;;;;;;;;12914509;22;20374;-83
2023/05/31 01:22:20;;;;;;;1.80;1.23;;;;;;;;;;12888369;23;20028;-83
2023/05/31 01:27:26;;;;;;;2.42;1.38;;;;;;;;;;12888377;23;20354;-83
2023/05/31 01:32:30;;;;;;;3.95;1.40;;;;;;;;;;12887909;23;20465;-84
2023/05/31 01:37:34;;;;;;;3.65;1.30;;;;;;;;;;12887651;23;20044;-84
2023/05/31 01:42:43;;;;;;;3.00;1.35;;;;;;;;;;12888774;22;20035;-83
2023/05/31 01:47:55;;;;;;;4.43;1.60;;;;;;;;;;12887856;23;20054;-83
2023/05/31 01:52:59;;;;;;;2.25;1.15;;;;;;;;;;12912747;22;20047;-83
2023/05/31 01:58:06;;;;;;;2.63;1.33;;;;;;;;;;12887150;23;20527;-83
2023/05/31 02:03:10;;;;;;;3.60;1.33;;;;;;;;;;12887264;22;20086;-83
2023/05/31 02:08:13;;;;;;;2.78;1.25;;;;;;;;;;12912479;23;20028;-83
2023/05/31 02:13:20;;;;;;;2.03;1.35;;;;;;;;;;12887838;22;20027;-83
2023/05/31 02:18:26;;;;;;;1.83;1.10;;;;;;;;;;12887920;23;20028;-83
2023/05/31 02:23:30;;;;;;;3.45;1.20;;;;;;;;;;12887516;22;20024;-83
2023/05/31 02:33:48;;;;;;;1.63;1.23;;;;;;;;;;12773614;23;20041;-76
2023/05/31 02:38:51;;;;;;;1.77;1.42;;;;;;;;;;12827355;23;20528;-76
2023/05/31 02:43:54;;;;;;;2.83;1.40;;;;;;;;;;12860055;23;20476;-77
2023/05/31 02:49:00;;;;;;;3.67;1.20;;;;;;;;;;12829892;23;20028;-76
2023/05/31 02:54:04;;;;;;;1.75;1.10;;;;;;;;;;12862491;23;20024;-76
2023/05/31 02:59:09;;;;;;;2.60;1.30;;;;;;;;;;12831121;23;20055;-79
2023/05/31 03:04:34;;;;;;;1.65;1.20;;;;;;;;;;12826383;23;20125;-76
2023/05/31 03:09:39;;;;;;;3.30;1.25;;;;;;;;;;12828811;23;20108;-76
2023/05/31 03:14:42;;;;;;;2.38;1.30;;;;;;;;;;12839626;23;20469;-78
2023/05/31 03:19:47;;;;;;;2.83;1.27;;;;;;;;;;12838402;23;20035;-77
2023/05/31 03:24:51;;;;;;;3.30;1.63;;;;;;;;;;12833604;23;20016;-76
2023/05/31 03:29:55;;;;;;;2.72;1.23;;;;;;;;;;12831416;23;20112;-76
2023/05/31 03:35:00;;;;;;;2.33;1.40;;;;;;;;;;12856467;23;20358;-76
2023/05/31 03:40:04;;;;;;;3.03;1.30;;;;;;;;;;12855806;23;20413;-76
2023/05/31 03:45:08;;;;;;;3.92;1.83;;;;;;;;;;12830629;23;20020;-76
2023/05/31 03:50:13;;;;;;;2.25;1.48;;;;;;;;;;12831142;23;20292;-76
2023/05/31 03:55:20;;;;;;;2.05;1.48;;;;;;;;;;12830815;23;20047;-77
2023/05/31 04:00:24;;;;;;;;;;;;;;;;;;12829453;23;20078;-76
2023/05/31 04:05:29;;;;;;;2.53;1.25;;;;;;;;;;12830137;23;20213;-76
2023/05/31 04:10:34;;;;;;;1.40;1.13;;;;;;;;;;12854972;23;20028;-76
2023/05/31 04:15:38;;;;;;;3.03;1.60;;;;;;;;;;12828017;23;20017;-76
2023/05/31 04:20:43;;;;;;;3.00;1.67;;;;;;;;;;12822878;23;20052;-76
2023/05/31 04:25:47;;;;;;;4.88;1.65;;;;;;;;;;12828072;23;20024;-76
2023/05/31 04:30:51;;;;;;;2.58;1.52;;;;;;;;;;12828677;23;20021;-76
2023/05/31 04:35:57;;;;;;;4.40;1.70;;;;;;;;;;12828148;23;20043;-76
2023/05/31 04:41:00;;;;;;;3.38;1.70;;;;;;;;;;12828289;23;20024;-76
2023/05/31 04:46:04;;;;;;;3.28;1.60;;;;;;;;;;12827484;23;20087;-76
2023/05/31 04:51:09;;;;;;;3.13;1.67;;;;;;;;;;12828590;23;20523;-77
2023/05/31 04:56:13;;;;;;;2.15;1.45;;;;;;;;;;12852231;23;20104;-76
2023/05/31 05:01:17;;;;;;;4.45;1.30;;;;;;;;;;12851667;23;20055;-76
2023/05/31 05:06:48;;;;;;;2.50;1.30;;;;;;;;;;12847487;23;20469;-76
2023/05/31 05:11:53;;;;;;;1.70;1.20;;;;;;;;;;12825994;23;20028;-76
2023/05/31 05:16:56;;;;;;;2.47;1.33;;;;;;;;;;12825234;23;20279;-76
2023/05/31 05:22:02;;;;;;;2.63;1.17;;;;;;;;;;12823521;23;20031;-77
2023/05/31 05:27:06;;;;;;;2.67;1.33;;;;;;;;;;12825986;23;20079;-77
2023/05/31 05:32:10;;;;;;;4.30;1.73;;;;;;;;;;12826945;23;20063;-77
2023/05/31 05:37:15;;;;;;;2.08;1.20;;;;;;;;;;12825676;23;20033;-77
2023/05/31 05:42:19;;;;;;;2.20;1.38;;;;;;;;;;12851737;23;20025;-76
2023/05/31 05:47:22;;;;;;;2.97;1.35;;;;;;;;;;12826708;23;20031;-77
2023/05/31 05:52:29;;;;;;;5.13;1.50;;;;;;;;;;12828742;23;20088;-77
2023/05/31 05:57:33;;;;;;;3.60;1.17;;;;;;;;;;12826502;23;20343;-77
2023/05/31 06:02:52;;;;;;;2.90;1.40;;;;;;;;;;12828889;23;20403;-77
2023/05/31 06:07:58;;;;;;;4.05;1.77;;;;;;;;;;12852223;23;20052;-77
2023/05/31 06:13:01;;;;;;;4.22;2.03;;;;;;;;;;12828272;23;20028;-77
2023/05/31 06:18:05;;;;;;;1.58;1.23;;;;;;;;;;12827183;23;20090;-78
2023/05/31 06:23:10;;;;;;;2.08;1.23;;;;;;;;;;12834516;23;20048;-78
2023/05/31 06:28:16;;;;;;;4.63;1.60;;;;;;;;;;12841699;23;20032;-78
2023/05/31 06:33:20;;;;;;;1.40;1.02;;;;;;;;;;12837567;23;20029;-77
2023/05/31 06:38:27;;;;;;;3.35;1.50;;;;;;;;;;12831571;23;20107;-77
2023/05/31 06:43:31;;;;;;;2.80;1.30;;;;;;;;;;12831066;23;20486;-77
2023/05/31 06:48:43;;;;;;;3.00;1.05;;;;;;;;;;12864521;23;20024;-77
2023/05/31 06:54:23;;;;;;;1.73;1.15;;;;;;;;;;12691238;23;20048;-77
2023/05/31 06:59:28;;;;;;;;;;;;;;;;;;12833088;23;20025;-77
2023/05/31 07:04:31;;;;;;;4.18;1.55;;;;;;;;;;12858566;23;19924;-77
2023/05/31 07:09:37;;;;;;;2.08;1.33;;;;;;;;;;12827257;23;20111;-78
2023/05/31 07:14:41;;;;;;;2.42;1.27;;;;;;;;;;12854643;23;20032;-78
2023/05/31 07:19:52;;;;;;;2.63;1.30;;;;;;;;;;12856126;23;20031;-78
2023/05/31 07:25:08;;;;;;;1.92;1.10;;;;;;;;;;12857193;23;20029;-77
2023/05/31 07:30:15;;;;;;;2.80;1.35;;;;;;;;;;12853766;23;20450;-77
2023/05/31 07:35:18;;;;;;;2.08;1.38;;;;;;;;;;12827385;23;20021;-78
2023/05/31 07:40:55;;;;;;;3.13;1.20;;;;;;;;;;12828586;23;20361;-78
2023/05/31 07:46:23;;;;;;;2.15;1.00;;;;;;;;;;12832379;23;20104;-77
2023/05/31 07:51:30;;;;;;;1.80;1.13;;;;;;;;;;12834134;23;20028;-77
2023/05/31 07:56:35;;;;;;;3.28;1.30;;;;;;;;;;12855183;23;20028;-79
2023/05/31 08:01:39;;;;;;;3.05;1.48;;;;;;;;;;12875045;23;20025;-78
2023/05/31 08:06:43;;;;;;;2.38;1.33;;;;;;;;;;12848657;23;20071;-78
2023/05/31 08:12:02;;;;;;;4.13;1.35;;;;;;;;;;12856874;23;20020;-77
2023/05/31 08:17:47;;;;;;;4.32;1.00;;;;;;;;;;12833870;23;20123;-77
2023/05/31 08:29:48;;;;;;;2.53;1.05;;;;;;;;;;12482624;23;20029;-81
2023/05/31 08:34:52;;;;;;;3.13;1.02;;;;;;;;;;12849389;23;20064;-81
2023/05/31 08:39:55;;;;;;;2.15;1.08;;;;;;;;;;12824136;23;20454;-80
2023/05/31 08:45:01;;;;;;;2.47;1.00;;;;;;;;;;12821874;23;20047;-81
2023/05/31 08:50:06;;;;;;;2.67;1.27;;;;;;;;;;12822531;23;20028;-80
2023/05/31 08:55:10;;;;;;;2.08;1.20;;;;;;;;;;12821319;23;20405;-80
2023/05/31 09:00:16;;;;;;;1.90;1.15;;;;;;;;;;12850153;23;20074;-81
2023/05/31 09:05:19;;;;;;;;;;;;;;;;;;12822124;23;20024;-81
2023/05/31 09:10:23;;;;;;;2.38;0.90;;;;;;;;;;12824278;23;19916;-81
2023/05/31 09:15:29;;;;;;;2.58;1.27;;;;;;;;;;12847220;23;20028;-80
2023/05/31 09:20:33;;;;;;;1.23;0.75;;;;;;;;;;12870427;23;20017;-81
2023/05/31 09:25:47;;;;;;;2.05;0.85;;;;;;;;;;12848586;23;20020;-80
2023/05/31 09:31:04;;;;;;;1.35;0.90;;;;;;;;;;12822997;23;20335;-80
2023/05/31 09:36:09;;;;;;;2.30;0.80;;;;;;;;;;12821775;23;20084;-81
2023/05/31 09:41:15;;;;;;;3.33;0.93;;;;;;;;;;12823382;23;20021;-81
2023/05/31 09:46:22;;;;;;;1.73;0.90;;;;;;;;;;12864532;23;20147;-80
2023/05/31 09:51:26;;;;;;;1.45;0.77;;;;;;;;;;12868820;23;20031;-81
2023/05/31 09:56:30;;;;;;;2.20;0.80;;;;;;;;;;12867539;23;20024;-81
2023/05/31 10:01:37;;;;;;;0.82;0.63;;;;;;;;;;12825599;23;20028;-81
2023/05/31 10:06:40;;;;;;;2.28;0.90;;;;;;;;;;12825638;23;20071;-81
2023/05/31 10:11:51;;;;;;;3.17;1.00;;;;;;;;;;12866236;23;20024;-81
2023/05/31 10:16:56;;;;;;;1.42;0.88;;;;;;;;;;12865836;23;20025;-81
2023/05/31 10:22:01;;;;;;;1.00;0.68;;;;;;;;;;12824265;23;20024;-80
2023/05/31 10:27:14;;;;;;;1.97;0.90;;;;;;;;;;12864551;23;20079;-80
2023/05/31 10:32:22;;;;;;;2.05;0.93;;;;;;;;;;12863052;23;20033;-80
2023/05/31 10:37:27;;;;;;;3.90;0.93;;;;;;;;;;12867159;23;20052;-80
2023/05/31 10:42:37;;;;;;;1.48;0.93;;;;;;;;;;12869463;23;20024;-80
2023/05/31 10:47:47;;;;;;;1.33;0.70;;;;;;;;;;12867845;23;20021;-80
2023/05/31 10:52:51;;;;;;;1.38;0.82;;;;;;;;;;12848799;23;20397;-80
2023/05/31 10:57:56;;;;;;;1.98;0.80;;;;;;;;;;12850759;23;20070;-80
2023/05/31 11:03:02;;;;;;;3.15;1.10;;;;;;;;;;12823995;23;20358;-80
2023/05/31 11:08:14;;;;;;;2.33;1.20;;;;;;;;;;12824281;23;20071;-81
2023/05/31 11:13:18;;;;;;;1.85;0.95;;;;;;;;;;12854121;23;20028;-80
2023/05/31 11:18:27;;;;;;;2.75;0.80;;;;;;;;;;12827057;23;20380;-81
2023/05/31 11:23:34;;;;;;;1.30;0.60;;;;;;;;;;12862673;23;20032;-80
2023/05/31 11:29:01;;;;;;;1.23;0.80;;;;;;;;;;12854587;23;20028;-80
2023/05/31 11:34:21;;;;;;;1.83;0.93;;;;;;;;;;12859699;23;20052;-81
2023/05/31 11:39:25;;;;;;;1.90;0.98;;;;;;;;;;12854165;23;20418;-81
2023/05/31 11:44:31;;;;;;;1.38;0.77;;;;;;;;;;12854299;23;20062;-80
2023/05/31 11:49:35;;;;;;;2.88;1.15;;;;;;;;;;12827245;23;20390;-80
2023/05/31 11:54:43;;;;;;;1.73;1.00;;;;;;;;;;12855970;23;20024;-81
2023/05/31 11:59:47;;;;;;;3.05;1.10;;;;;;;;;;12856426;23;20080;-80
2023/05/31 12:04:52;;;;;;;1.20;0.70;;;;;;;;;;12856218;23;20470;-81
2023/05/31 12:09:55;;;;;;;0.85;0.60;;;;;;;;;;12854643;23;20358;-81
2023/05/31 12:15:01;;;;;;;2.22;0.73;;;;;;;;;;12855633;23;20350;-81
2023/05/31 12:20:07;;;;;;;1.10;0.63;;;;;;;;;;12855533;23;20052;-81
2023/05/31 12:25:11;;;;;;;1.45;0.88;;;;;;;;;;12856107;23;20028;-80
2023/05/31 12:30:18;;;;;;;1.60;0.80;;;;;;;;;;12830878;23;20043;-80
2023/05/31 12:35:23;;;;;;;1.35;0.80;;;;;;;;;;12853969;23;20382;-80
2023/05/31 12:40:26;;;;;;;1.27;0.70;;;;;;;;;;12852213;23;20025;-80
2023/05/31 12:45:30;;;;;;;3.70;0.90;;;;;;;;;;12824389;23;20029;-80
2023/05/31 12:50:35;;;;;;;1.23;0.80;;;;;;;;;;12824478;23;20017;-80
2023/05/31 12:55:38;;;;;;;;;;;;;;;;;;12825528;23;20036;-81
2023/05/31 13:00:43;;;;;;;2.22;0.90;;;;;;;;;;12870926;23;19981;-81
2023/05/31 13:05:48;;;;;;;2.20;0.60;;;;;;;;;;12825016;23;20020;-80
2023/05/31 13:10:51;;;;;;;1.10;0.75;;;;;;;;;;12824492;23;20071;-80
2023/05/31 13:15:55;;;;;;;1.27;0.60;;;;;;;;;;12824626;23;20066;-80
2023/05/31 13:21:00;;;;;;;1.35;0.68;;;;;;;;;;12823710;23;20067;-80
2023/05/31 13:26:03;;;;;;;;;;;;;;;;;;12851443;23;20071;-81
2023/05/31 13:31:07;;;;;;;1.20;0.90;;;;;;;;;;12867577;23;19919;-81
2023/05/31 13:36:12;;;;;;;1.02;0.80;;;;;;;;;;12867813;23;20024;-81
2023/05/31 13:41:16;;;;;;;1.42;0.73;;;;;;;;;;12868003;23;20027;-80
2023/05/31 13:46:19;;;;;;;2.15;0.90;;;;;;;;;;12848894;23;20096;-80
2023/05/31 13:51:24;;;;;;;1.20;0.80;;;;;;;;;;12868518;23;20048;-81
2023/05/31 13:56:27;;;;;;;2.50;0.65;;;;;;;;;;12829947;23;20350;-80
2023/05/31 14:01:31;;;;;;;1.08;0.60;;;;;;;;;;12855271;23;20035;-80
2023/05/31 14:06:36;;;;;;;1.80;0.88;;;;;;;;;;12867877;23;20045;-81
2023/05/31 14:11:40;;;;;;;2.00;1.00;;;;;;;;;;12865665;23;20065;-81
2023/05/31 14:16:43;;;;;;;1.08;0.73;;;;;;;;;;12864930;23;20020;-80
2023/05/31 14:21:48;;;;;;;1.10;0.70;;;;;;;;;;12851366;23;20035;-81
2023/05/31 14:26:54;;;;;;;1.67;0.55;;;;;;;;;;12824361;23;20024;-81
2023/05/31 14:43:33;;;;;;;2.83;0.68;;;;;;;;;;12825919;23;20053;-87
2023/05/31 14:48:36;;;;;;;1.48;0.55;;;;;;;;;;12853918;23;20067;-88
2023/05/31 14:53:40;;;;;;;0.80;0.70;;;;;;;;;;12855604;23;20021;-88
2023/05/31 14:58:45;;;;;;;0.80;0.60;;;;;;;;;;12829347;23;20020;-87
2023/05/31 15:03:50;;;;;;;2.05;0.80;;;;;;;;;;12828978;23;20029;-88
2023/05/31 15:08:53;;;;;;;2.55;0.90;;;;;;;;;;12855043;23;20025;-88
2023/05/31 15:13:58;;;;;;;1.33;0.68;;;;;;;;;;12853652;23;20569;-87
2023/05/31 15:19:02;;;;;;;1.02;0.70;;;;;;;;;;12860958;23;20020;-87
2023/05/31 15:24:05;;;;;;;1.77;0.75;;;;;;;;;;12828743;23;20035;-87
2023/05/31 15:29:11;;;;;;;1.70;0.85;;;;;;;;;;12828924;23;20027;-88
2023/05/31 15:34:15;;;;;;;1.30;0.77;;;;;;;;;;12827530;23;20017;-87
2023/05/31 15:39:20;;;;;;;0.47;0.45;;;;;;;;;;12828592;23;20071;-87
2023/05/31 15:44:25;;;;;;;1.10;0.90;;;;;;;;;;12859171;23;20027;-86
2023/05/31 15:49:28;;;;;;;0.97;0.80;;;;;;;;;;12828656;23;20571;-88
2023/05/31 15:54:32;;;;;;;1.77;0.88;;;;;;;;;;12826900;23;20035;-88
2023/05/31 15:59:37;;;;;;;3.85;1.00;;;;;;;;;;12828210;23;20024;-87
2023/05/31 16:04:40;;;;;;;4.03;0.80;;;;;;;;;;12827683;23;20025;-88
2023/05/31 16:09:44;;;;;;;3.03;0.80;;;;;;;;;;12827450;23;20020;-88
2023/05/31 16:14:50;;;;;;;2.05;0.80;;;;;;;;;;12852709;23;20029;-87
2023/05/31 16:19:53;;;;;;;1.63;0.55;;;;;;;;;;12854280;23;20091;-87
2023/05/31 16:24:57;;;;;;;1.45;0.77;;;;;;;;;;12827386;23;20036;-87
2023/05/31 16:30:03;;;;;;;0.93;0.60;;;;;;;;;;12827491;23;20320;-87
2023/05/31 16:35:08;;;;;;;2.85;0.73;;;;;;;;;;12827545;23;20531;-88
2023/05/31 16:40:12;;;;;;;2.30;0.80;;;;;;;;;;12854469;23;20020;-88
2023/05/31 16:45:17;;;;;;;3.00;1.10;;;;;;;;;;12854383;23;20028;-87
2023/05/31 16:50:21;;;;;;;1.53;0.67;;;;;;;;;;12852733;23;20021;-88
2023/05/31 16:55:24;;;;;;;1.42;1.05;;;;;;;;;;12792937;23;20252;-87
2023/05/31 17:00:29;;;;;;;1.98;0.93;;;;;;;;;;12825171;23;20025;-88
2023/05/31 17:05:33;;;;;;;1.73;1.13;;;;;;;;;;12764078;23;20083;-88
2023/05/31 17:10:36;;;;;;;2.33;0.63;;;;;;;;;;12791051;23;20024;-87
2023/05/31 17:15:41;;;;;;;4.22;1.23;;;;;;;;;;12790170;23;20631;-87
2023/05/31 17:20:44;;;;;;;2.83;1.53;;;;;;;;;;12763877;23;20467;-88
2023/05/31 17:25:48;;;;;;;1.15;0.80;;;;;;;;;;12764803;23;20024;-86
2023/05/31 17:30:53;;;;;;;2.13;0.95;;;;;;;;;;12763397;23;20340;-86
2023/05/31 17:35:57;;;;;;;4.20;0.80;;;;;;;;;;12790247;23;20524;-86
2023/05/31 17:41:01;;;;;;;1.17;0.60;;;;;;;;;;12762788;23;20474;-87
2023/05/31 17:46:06;;;;;;;1.88;0.65;;;;;;;;;;12807206;23;20033;-87
2023/05/31 17:51:10;;;;;;;0.77;0.63;;;;;;;;;;12806941;23;20028;-87
2023/05/31 17:56:13;;;;;;;0.88;0.55;;;;;;;;;;12787658;23;20075;-86
2023/05/31 18:01:18;;;;;;;0.93;0.70;;;;;;;;;;12762877;23;20055;-86
2023/05/31 18:06:22;;;;;;;1.27;0.63;;;;;;;;;;12805551;23;20074;-87
2023/05/31 18:11:25;;;;;;;1.42;0.52;;;;;;;;;;12763450;23;20024;-87
2023/05/31 18:16:30;;;;;;;2.15;0.60;;;;;;;;;;12763302;23;20682;-86
2023/05/31 18:21:34;;;;;;;2.85;0.70;;;;;;;;;;12767127;23;20024;-86
2023/05/31 18:26:39;;;;;;;1.95;0.60;;;;;;;;;;12809152;23;20033;-86
2023/05/31 18:31:44;;;;;;;1.88;0.57;;;;;;;;;;12767123;23;20025;-87
2023/05/31 18:36:47;;;;;;;1.55;0.77;;;;;;;;;;12764265;23;20029;-87
2023/05/31 18:41:51;;;;;;;0.85;0.63;;;;;;;;;;12765717;23;20032;-86
2023/05/31 18:46:56;;;;;;;0.82;0.68;;;;;;;;;;12764760;23;20028;-86
2023/05/31 18:52:00;;;;;;;0.97;0.87;;;;;;;;;;12766011;23;20406;-86
2023/05/31 18:57:04;;;;;;;1.95;0.70;;;;;;;;;;12791205;23;20079;-87
2023/05/31 19:02:10;;;;;;;0.90;0.70;;;;;;;;;;12790903;23;20029;-85
2023/05/31 19:07:13;;;;;;;0.70;0.70;;;;;;;;;;12766145;23;20466;-87
2023/05/31 19:12:17;;;;;;;2.50;0.68;;;;;;;;;;12791040;23;20049;-86
2023/05/31 19:17:28;;;;;;;5.22;1.00;;;;;;;;;;12804943;23;20049;-86
2023/05/31 19:22:47;;;;;;;2.17;0.73;;;;;;;;;;12766266;23;20401;-86
2023/05/31 19:27:51;;;;;;;1.00;0.77;;;;;;;;;;12791590;23;20028;-86
2023/05/31 19:32:55;;;;;;;1.75;0.63;;;;;;;;;;12802245;23;20021;-86
2023/05/31 19:37:59;;;;;;;1.48;0.70;;;;;;;;;;12765906;23;20525;-86
2023/05/31 19:43:02;;;;;;;1.08;0.60;;;;;;;;;;12765099;23;20029;-86
2023/05/31 19:48:08;;;;;;;1.30;0.70;;;;;;;;;;12765516;23;20024;-86
2023/05/31 19:53:12;;;;;;;1.00;0.70;;;;;;;;;;12791976;23;20029;-86
2023/05/31 19:58:15;;;;;;;0.82;0.60;;;;;;;;;;12800302;23;20125;-86
2023/05/31 20:03:20;;;;;;;0.82;0.60;;;;;;;;;;12764422;23;20032;-85
2023/05/31 20:08:24;;;;;;;1.90;0.63;;;;;;;;;;12788900;23;20033;-86
2023/05/31 20:13:27;;;;;;;1.75;0.70;;;;;;;;;;12791390;23;20114;-85
2023/05/31 20:18:32;;;;;;;2.63;0.60;;;;;;;;;;12764977;23;20036;-86
2023/05/31 20:23:36;;;;;;;0.73;0.70;;;;;;;;;;12764982;23;20021;-85
2023/05/31 20:29:00;;;;;;;1.20;0.75;;;;;;;;;;12767582;23;20029;-87
2023/05/31 20:34:06;;;;;;;2.57;1.17;;;;;;;;;;12707057;23;20021;-80
2023/05/31 20:39:09;;;;;;;1.03;0.60;;;;;;;;;;12733938;23;20029;-79
2023/05/31 20:44:13;;;;;;;1.38;0.77;;;;;;;;;;12738042;23;20014;-79
2023/05/31 20:49:18;;;;;;;0.82;0.68;;;;;;;;;;12753713;23;20025;-79
2023/05/31 20:54:22;;;;;;;2.43;0.90;;;;;;;;;;12743778;23;20096;-79
2023/05/31 20:59:26;;;;;;;1.75;0.80;;;;;;;;;;12704102;23;20473;-79
2023/05/31 21:04:31;;;;;;;2.65;0.73;;;;;;;;;;12736141;23;20041;-79
2023/05/31 21:09:34;;;;;;;1.53;0.93;;;;;;;;;;12707244;23;20060;-79
2023/05/31 21:14:37;;;;;;;1.70;0.70;;;;;;;;;;12733153;23;20098;-79
2023/05/31 21:19:42;;;;;;;0.90;0.80;;;;;;;;;;12734320;23;20022;-79
2023/05/31 21:24:46;;;;;;;1.45;1.08;;;;;;;;;;12736539;23;20387;-80
2023/05/31 21:29:51;;;;;;;1.45;0.77;;;;;;;;;;12731769;23;20082;-80
2023/05/31 21:34:56;;;;;;;2.55;0.75;;;;;;;;;;12707719;23;20025;-80
2023/05/31 21:39:59;;;;;;;1.20;0.73;;;;;;;;;;12763004;23;20071;-80
2023/05/31 21:45:03;;;;;;;1.55;0.80;;;;;;;;;;12710391;23;20018;-80
2023/05/31 21:50:09;;;;;;;1.35;0.80;;;;;;;;;;12706392;23;20463;-79
2023/05/31 21:55:13;;;;;;;2.92;1.33;;;;;;;;;;12732036;23;20021;-80
2023/05/31 22:00:17;;;;;;;1.30;0.80;;;;;;;;;;12704883;23;20534;-80
2023/05/31 22:05:22;;;;;;;3.63;1.08;;;;;;;;;;12732360;23;20041;-79
2023/05/31 22:10:25;;;;;;;1.13;0.93;;;;;;;;;;12706082;23;20029;-80
2023/05/31 22:15:29;;;;;;;1.67;1.10;;;;;;;;;;12766261;23;20049;-80
2023/05/31 22:20:36;;;;;;;1.55;0.98;;;;;;;;;;12706621;23;20096;-80
2023/05/31 22:25:39;;;;;;;2.13;0.93;;;;;;;;;;12750939;23;20013;-79
2023/05/31 22:30:43;;;;;;;0.93;0.75;;;;;;;;;;12729048;23;20028;-80
2023/05/31 22:35:48;;;;;;;2.35;1.25;;;;;;;;;;12758584;23;20022;-80
2023/05/31 22:40:52;;;;;;;1.73;1.00;;;;;;;;;;12741466;23;20022;-80
2023/05/31 22:45:56;;;;;;;1.08;0.80;;;;;;;;;;12739987;23;20021;-79
2023/05/31 22:51:01;;;;;;;1.85;0.77;;;;;;;;;;12749685;23;20018;-79
2023/05/31 22:56:06;;;;;;;1.08;0.90;;;;;;;;;;12730850;23;20102;-79
2023/05/31 23:01:09;;;;;;;1.55;0.80;;;;;;;;;;12730484;23;20026;-79
2023/05/31 23:06:16;;;;;;;1.38;1.00;;;;;;;;;;12733583;23;20359;-79
2023/05/31 23:11:21;;;;;;;;;;;;;;;;;;12734307;23;20018;-79
2023/05/31 23:16:25;;;;;;;2.00;1.00;;;;;;;;;;12735916;23;19924;-79
2023/05/31 23:21:29;;;;;;;2.08;0.70;;;;;;;;;;12750955;23;20045;-79
2023/05/31 23:26:33;;;;;;;1.75;1.08;;;;;;;;;;12750340;23;20025;-79
2023/05/31 23:31:37;;;;;;;0.98;0.80;;;;;;;;;;12735311;23;20084;-79
2023/05/31 23:36:42;;;;;;;1.63;1.02;;;;;;;;;;12749957;23;20032;-79
2023/05/31 23:41:45;;;;;;;0.95;0.80;;;;;;;;;;12733687;23;20026;-79
2023/05/31 23:46:49;;;;;;;1.77;1.10;;;;;;;;;;12749504;23;20021;-79
2023/05/31 23:51:54;;;;;;;1.45;1.00;;;;;;;;;;12749083;23;20076;-79
2023/05/31 23:56:58;;;;;;;1.23;0.90;;;;;;;;;;12748471;23;20459;-80
